Buckley Air Natl Guard Base, Colorado
Current Conditions -  °F | °C
As of 11:58 AM on Friday 24 Oct 2014 (Local Time) from KBKF Reporting Station
Broken Clouds Broken Clouds  
Wind Chill: 74°   Ceiling: 22000
Heat Index: 74°   Visibility: 10mi
Dew Point: 27°   Wind: 8mph
Humidity: 17%   Direction: 210°SSW
Pressure: 30.22"   Gusts: NA
Location:  39.7351°N, 104.781°W
Report Text: KBKF 241758Z 21007KT 10SM FEW110 BKN220 24/M03 A3022 RMK AO2A SLP167 T02361029 10236 20126 50000
Loading
Personal Weather Stations






























Interactive Weather Map
Tropical Storm Tracking
New forecast layout! Learn more

10-Day Weather Forecast

Advertisements
Track Severe Weather on mobile